createdAt,value
2022-08-07T00:02:35.942Z,99.90
2022-08-07T00:04:06.700Z,99.90
2022-08-07T00:06:37.056Z,99.90
2022-08-07T00:09:16.816Z,99.90
2022-08-07T00:11:55.941Z,99.90
2022-08-07T00:14:30.249Z,99.90
2022-08-07T00:16:59.508Z,99.90
2022-08-07T00:19:59.942Z,99.90
2022-08-07T00:22:24.669Z,99.90
2022-08-07T00:25:10.957Z,99.90
2022-08-07T00:27:52.796Z,99.90
2022-08-07T00:30:27.506Z,99.90
2022-08-07T00:32:59.989Z,99.90
2022-08-07T00:35:29.823Z,99.90
2022-08-07T00:38:00.433Z,99.90
2022-08-07T00:40:39.044Z,99.90
2022-08-07T00:44:01.816Z,99.90
2022-08-07T00:46:00.314Z,99.90
2022-08-07T00:48:32.232Z,99.90
2022-08-07T00:51:00.868Z,99.90
2022-08-07T00:53:39.395Z,99.90
2022-08-07T00:56:15.763Z,99.90
2022-08-07T00:58:46.774Z,99.90
2022-08-07T01:01:16.032Z,99.90
2022-08-07T01:03:56.941Z,99.90
2022-08-07T01:06:30.744Z,99.90
2022-08-07T01:09:01.054Z,99.90
2022-08-07T01:12:23.617Z,99.90
2022-08-07T01:14:28.462Z,99.90
2022-08-07T01:16:56.902Z,99.90
2022-08-07T01:19:26.658Z,99.90
2022-08-07T01:21:55.380Z,99.90
2022-08-07T01:24:27.587Z,99.90
2022-08-07T01:26:58.938Z,99.90
2022-08-07T01:29:31.519Z,99.90
2022-08-07T01:32:05.387Z,99.90
2022-08-07T01:34:34.110Z,99.90
2022-08-07T01:37:09.678Z,99.90
2022-08-07T01:39:40.952Z,99.90
2022-08-07T01:42:38.812Z,99.90
2022-08-07T01:45:10.024Z,99.90
2022-08-07T01:48:17.892Z,99.90
2022-08-07T01:50:38.263Z,99.90
2022-08-07T01:53:11.777Z,99.90
2022-08-07T01:55:58.388Z,99.90
2022-08-07T01:58:33.367Z,99.90
2022-08-07T02:01:10.095Z,99.90
2022-08-07T02:03:58.227Z,99.90
2022-08-07T02:06:31.578Z,99.90
2022-08-07T02:09:04.882Z,99.90
2022-08-07T02:12:03.015Z,99.90
2022-08-07T02:14:35.879Z,99.90
2022-08-07T02:17:06.268Z,99.90
2022-08-07T02:20:07.136Z,99.90
2022-08-07T02:22:25.854Z,99.90
2022-08-07T02:24:56.041Z,99.90
2022-08-07T02:27:25.195Z,99.90
2022-08-07T02:29:54.993Z,99.90
2022-08-07T02:32:30.126Z,99.90
2022-08-07T02:34:58.850Z,99.90
2022-08-07T02:37:34.169Z,99.90
2022-08-07T02:40:31.174Z,99.90
2022-08-07T02:42:58.880Z,99.90
2022-08-07T02:45:59.297Z,99.90
2022-08-07T02:48:15.619Z,99.90
2022-08-07T02:50:47.658Z,99.90
2022-08-07T02:53:38.918Z,99.90
2022-08-07T02:56:21.158Z,99.90
2022-08-07T02:58:54.180Z,99.90
2022-08-07T03:01:35.324Z,99.90
2022-08-07T03:04:13.063Z,99.90
2022-08-07T03:06:48.373Z,99.90
2022-08-07T03:09:43.182Z,99.90
2022-08-07T03:12:19.186Z,99.90
2022-08-07T03:14:52.764Z,99.90
2022-08-07T03:17:25.806Z,99.90
2022-08-07T03:19:55.646Z,99.90
2022-08-07T03:22:30.471Z,99.90
2022-08-07T03:25:00.250Z,99.90
2022-08-07T03:27:42.186Z,99.90
2022-08-07T03:30:18.318Z,99.90
2022-08-07T03:32:58.421Z,99.90
2022-08-07T03:35:43.509Z,99.90
2022-08-07T03:38:17.207Z,99.90
2022-08-07T03:40:57.076Z,99.90
2022-08-07T03:43:32.381Z,99.90
2022-08-07T03:46:03.441Z,99.90
2022-08-07T03:48:33.329Z,99.90
2022-08-07T03:51:14.076Z,99.90
2022-08-07T03:54:06.023Z,99.90
2022-08-07T03:56:32.829Z,99.90
2022-08-07T03:59:09.019Z,99.90
2022-08-07T04:01:45.839Z,99.90
2022-08-07T04:04:19.310Z,99.90
2022-08-07T04:06:52.423Z,99.90
2022-08-07T04:09:23.672Z,99.90
2022-08-07T04:12:25.062Z,99.90
2022-08-07T04:14:47.612Z,99.90
2022-08-07T04:17:20.995Z,99.90
2022-08-07T04:19:52.385Z,99.90
2022-08-07T04:22:28.894Z,99.90
2022-08-07T04:25:01.460Z,99.90
2022-08-07T04:27:35.902Z,99.90
2022-08-07T04:30:21.432Z,99.90
2022-08-07T04:33:01.421Z,99.90
2022-08-07T04:35:38.709Z,99.90
2022-08-07T04:38:11.433Z,99.90
2022-08-07T04:40:52.646Z,99.90
2022-08-07T04:44:14.435Z,99.90
2022-08-07T04:47:57.135Z,99.90
2022-08-07T04:50:14.010Z,99.90
2022-08-07T04:53:05.460Z,99.90
2022-08-07T04:58:13.160Z,99.90
2022-08-07T04:59:15.807Z,99.90
2022-08-07T05:01:56.254Z,99.90
2022-08-07T05:04:32.553Z,99.90
2022-08-07T05:07:36.818Z,99.90
2022-08-07T05:10:16.454Z,99.90
2022-08-07T05:14:53.824Z,99.90
2022-08-07T05:16:08.807Z,99.90
2022-08-07T05:18:40.843Z,99.90
2022-08-07T05:21:11.170Z,99.90
2022-08-07T05:23:45.359Z,99.90
2022-08-07T05:26:23.598Z,99.90
2022-08-07T05:29:00.190Z,99.90
2022-08-07T05:31:37.839Z,99.90
2022-08-07T05:34:13.125Z,99.90
2022-08-07T05:36:49.123Z,99.90
2022-08-07T05:40:13.928Z,99.90
2022-08-07T05:42:15.209Z,99.90
2022-08-07T05:45:14.171Z,99.90
2022-08-07T05:48:01.141Z,99.90
2022-08-07T05:50:42.636Z,99.90
2022-08-07T05:54:09.365Z,99.90
2022-08-07T05:56:01.855Z,99.90
2022-08-07T05:58:36.032Z,99.90
2022-08-07T06:01:10.667Z,99.90
2022-08-07T06:03:56.284Z,99.90
2022-08-07T06:06:36.243Z,99.90
2022-08-07T06:09:06.686Z,99.90
2022-08-07T06:11:38.543Z,99.90
2022-08-07T06:14:11.478Z,99.90
2022-08-07T06:16:50.655Z,99.90
2022-08-07T06:19:47.796Z,99.90
2022-08-07T06:22:23.333Z,99.90
2022-08-07T06:25:01.453Z,99.90
2022-08-07T06:27:44.361Z,99.90
2022-08-07T06:30:31.915Z,99.90
2022-08-07T06:33:15.582Z,99.90
2022-08-07T06:35:47.565Z,99.90
2022-08-07T06:38:31.879Z,99.90
2022-08-07T06:41:01.049Z,99.90
2022-08-07T06:43:39.577Z,99.90
2022-08-07T06:46:15.419Z,99.90
2022-08-07T06:48:58.310Z,99.90
2022-08-07T06:51:33.895Z,99.90
2022-08-07T06:55:32.700Z,99.90
2022-08-07T06:56:59.153Z,99.90
2022-08-07T07:00:11.649Z,99.90
2022-08-07T07:02:53.408Z,99.90
2022-08-07T07:05:14.367Z,99.90
2022-08-07T07:08:03.952Z,99.90
2022-08-07T07:10:35.219Z,99.90
2022-08-07T07:13:55.348Z,99.90
2022-08-07T07:16:19.807Z,99.90
2022-08-07T07:18:54.163Z,99.90
2022-08-07T07:21:27.347Z,99.90
2022-08-07T07:24:12.563Z,99.90
2022-08-07T07:26:51.823Z,99.90
2022-08-07T07:29:57.527Z,99.90
2022-08-07T07:32:12.843Z,99.90
2022-08-07T07:34:48.694Z,99.90
2022-08-07T07:37:44.168Z,99.90
2022-08-07T07:40:14.838Z,99.90
2022-08-07T07:42:51.270Z,99.90
2022-08-07T07:46:40.358Z,99.90
2022-08-07T07:48:35.300Z,99.90
2022-08-07T07:51:07.880Z,99.90
2022-08-07T07:53:51.753Z,99.90
2022-08-07T07:56:30.103Z,99.90
2022-08-07T07:59:04.173Z,99.90
2022-08-07T08:02:03.464Z,99.90
2022-08-07T08:04:25.743Z,99.90
2022-08-07T08:06:54.261Z,99.90
2022-08-07T08:09:25.158Z,99.90
2022-08-07T08:12:01.883Z,99.90
2022-08-07T08:14:36.615Z,99.90
2022-08-07T08:17:32.308Z,99.90
2022-08-07T08:20:17.493Z,99.90
2022-08-07T08:23:09.489Z,99.90
2022-08-07T08:25:58.748Z,99.90
2022-08-07T08:28:38.652Z,99.90
2022-08-07T08:31:15.917Z,99.90
2022-08-07T08:33:49.330Z,99.90
2022-08-07T08:36:25.577Z,99.90
2022-08-07T08:39:00.002Z,99.90
2022-08-07T08:42:03.265Z,99.90
2022-08-07T08:44:52.921Z,99.90
2022-08-07T08:47:29.625Z,99.90
2022-08-07T08:50:17.557Z,99.90
2022-08-07T08:53:06.348Z,99.90
2022-08-07T08:55:55.342Z,99.90
2022-08-07T08:58:36.553Z,99.90
2022-08-07T09:01:29.582Z,99.90
2022-08-07T09:04:18.848Z,99.90
2022-08-07T09:07:02.082Z,99.90
2022-08-07T09:09:56.635Z,99.90
2022-08-07T09:13:01.102Z,99.90
2022-08-07T09:16:21.669Z,99.90
2022-08-07T09:18:41.439Z,99.90
2022-08-07T09:21:57.966Z,99.90
2022-08-07T09:25:00.494Z,99.90
2022-08-07T09:28:03.783Z,99.90
2022-08-07T09:30:55.746Z,99.90
2022-08-07T09:33:52.727Z,99.90
2022-08-07T09:36:49.517Z,99.90
2022-08-07T09:39:54.663Z,99.90
2022-08-07T09:42:32.957Z,99.90
2022-08-07T09:47:20.247Z,99.90
2022-08-07T09:48:20.599Z,99.90
2022-08-07T09:50:51.349Z,99.90
2022-08-07T09:53:23.370Z,99.90
2022-08-07T09:56:03.786Z,99.90
2022-08-07T09:58:38.719Z,99.90
2022-08-07T10:01:51.375Z,99.90
2022-08-07T10:04:38.079Z,99.90
2022-08-07T10:07:31.709Z,99.90
2022-08-07T10:10:23.911Z,99.90
2022-08-07T10:13:29.695Z,99.90
2022-08-07T10:16:16.091Z,99.90
2022-08-07T10:19:18.275Z,99.90
2022-08-07T10:22:15.438Z,99.90
2022-08-07T10:25:02.686Z,99.90
2022-08-07T10:28:12.614Z,99.90
2022-08-07T10:31:06.031Z,99.90
2022-08-07T10:34:06.033Z,99.90
2022-08-07T10:36:56.472Z,99.90
2022-08-07T10:39:41.210Z,99.90
2022-08-07T10:42:36.352Z,99.90
2022-08-07T10:45:19.635Z,99.90
2022-08-07T10:48:34.848Z,99.90
2022-08-07T10:51:16.728Z,99.90
2022-08-07T10:54:19.879Z,99.90
2022-08-07T10:57:00.551Z,99.90
2022-08-07T10:59:53.358Z,99.90
2022-08-07T11:02:33.165Z,99.90
2022-08-07T11:05:50.508Z,99.90
2022-08-07T11:08:48.725Z,99.90
2022-08-07T11:11:27.440Z,99.90
2022-08-07T11:14:46.408Z,99.90
2022-08-07T11:17:02.234Z,99.90
2022-08-07T11:19:55.472Z,99.90
2022-08-07T11:22:46.433Z,99.90
2022-08-07T11:25:28.001Z,99.90
2022-08-07T11:28:25.315Z,99.90
2022-08-07T11:31:11.431Z,99.90
2022-08-07T11:33:59.853Z,99.90
2022-08-07T11:37:00.450Z,99.90
2022-08-07T11:40:00.103Z,99.90
2022-08-07T11:43:04.300Z,99.90
2022-08-07T11:45:53.075Z,99.90
2022-08-07T11:48:29.251Z,99.90
2022-08-07T11:51:09.763Z,99.90
2022-08-07T11:54:02.130Z,99.90
2022-08-07T11:56:53.221Z,99.90
2022-08-07T12:00:10.291Z,99.90
2022-08-07T12:02:52.116Z,99.90
2022-08-07T12:05:47.473Z,99.90
2022-08-07T12:08:35.018Z,99.90
2022-08-07T12:11:22.578Z,99.90
2022-08-07T12:14:15.371Z,99.90
2022-08-07T12:17:04.366Z,99.90
2022-08-07T12:20:02.681Z,99.90
2022-08-07T12:22:58.532Z,99.90
2022-08-07T12:26:05.351Z,99.90
2022-08-07T12:28:53.213Z,99.90
2022-08-07T12:32:02.594Z,99.90
2022-08-07T12:34:34.579Z,99.90
2022-08-07T12:37:08.340Z,99.90
2022-08-07T12:39:51.178Z,99.90
2022-08-07T12:42:27.670Z,99.90
2022-08-07T12:45:05.899Z,99.90
2022-08-07T12:48:13.138Z,99.90
2022-08-07T12:51:17.250Z,99.90
2022-08-07T12:54:03.304Z,99.90
2022-08-07T12:56:51.421Z,99.90
2022-08-07T12:59:30.480Z,99.90
2022-08-07T13:03:00.920Z,99.90
2022-08-07T13:06:02.786Z,99.90
2022-08-07T13:08:51.588Z,99.90
2022-08-07T13:11:30.832Z,99.90
2022-08-07T13:14:17.669Z,99.90
2022-08-07T13:16:56.311Z,99.90
2022-08-07T13:19:51.074Z,99.90
2022-08-07T13:22:27.747Z,99.90
2022-08-07T13:25:04.101Z,99.90
2022-08-07T13:28:11.141Z,99.90
2022-08-07T13:30:48.754Z,99.90
2022-08-07T13:34:32.622Z,99.70
2022-08-07T13:36:30.974Z,99.40
2022-08-07T13:40:32.599Z,99.90
2022-08-07T13:42:38.887Z,99.70
2022-08-07T13:46:06.224Z,99.70
2022-08-07T13:48:05.436Z,99.50
2022-08-07T13:50:55.635Z,99.90
2022-08-07T13:54:00.853Z,99.90
2022-08-07T13:56:36.293Z,99.90
2022-08-07T13:59:25.667Z,99.90
2022-08-07T14:02:07.595Z,99.90
2022-08-07T14:04:54.392Z,99.90
2022-08-07T14:07:34.148Z,99.90
2022-08-07T14:10:21.707Z,99.20
2022-08-07T14:12:54.856Z,99.30
2022-08-07T14:15:43.940Z,99.60
2022-08-07T14:18:39.181Z,98.50
2022-08-07T14:22:01.788Z,98.30
2022-08-07T14:24:35.964Z,98.50
2022-08-07T14:28:09.534Z,97.20
2022-08-07T14:30:06.256Z,98.50
2022-08-07T14:32:45.989Z,97.70
2022-08-07T14:35:42.980Z,97.60
2022-08-07T14:38:26.600Z,97.70
2022-08-07T14:41:14.977Z,97.20
2022-08-07T14:43:58.939Z,98.40
2022-08-07T14:46:33.434Z,96.60
2022-08-07T14:49:55.967Z,97.50
2022-08-07T14:54:42.907Z,95.60
2022-08-07T15:00:06.809Z,95.90
2022-08-07T15:02:37.305Z,95.60
2022-08-07T15:05:19.709Z,95.90
2022-08-07T15:07:52.331Z,95.70
2022-08-07T15:10:26.294Z,94.60
2022-08-07T15:13:11.685Z,95.50
2022-08-07T15:16:02.774Z,96.60
2022-08-07T15:18:49.288Z,96.90
2022-08-07T15:21:45.034Z,97.30
2022-08-07T15:25:15.069Z,97.10
2022-08-07T15:27:19.214Z,97.20
2022-08-07T15:30:04.746Z,97.00
2022-08-07T15:32:50.685Z,97.10
2022-08-07T15:36:01.148Z,96.90
2022-08-07T15:38:30.863Z,95.80
2022-08-07T15:41:23.771Z,96.30
2022-08-07T15:44:09.081Z,96.30
2022-08-07T15:46:51.901Z,96.30
2022-08-07T15:52:17.023Z,94.80
2022-08-07T15:54:48.251Z,94.30
2022-08-07T15:57:39.866Z,95.40
2022-08-07T16:00:09.028Z,96.20
2022-08-07T16:02:58.803Z,96.50
2022-08-07T16:05:31.287Z,96.80
2022-08-07T16:08:33.590Z,96.80
2022-08-07T16:11:29.269Z,97.10
2022-08-07T16:14:05.324Z,97.70
2022-08-07T16:16:49.243Z,97.50
2022-08-07T16:19:59.050Z,97.80
2022-08-07T16:22:37.708Z,98.20
2022-08-07T16:25:52.541Z,98.10
2022-08-07T16:30:07.390Z,98.50
2022-08-07T16:31:51.641Z,98.90
2022-08-07T16:34:48.676Z,99.20
2022-08-07T16:38:03.724Z,98.80
2022-08-07T16:40:33.281Z,99.00
2022-08-07T16:43:06.150Z,98.90
2022-08-07T16:46:33.695Z,99.10
2022-08-07T16:50:20.184Z,99.30
2022-08-07T16:52:06.476Z,99.70
2022-08-07T16:54:57.876Z,99.20
2022-08-07T16:58:00.975Z,98.80
2022-08-07T17:00:29.683Z,98.90
2022-08-07T17:03:58.350Z,98.80
2022-08-07T17:06:29.611Z,98.70
2022-08-07T17:09:15.685Z,99.00
2022-08-07T17:12:35.582Z,98.80
2022-08-07T17:15:16.046Z,98.90
2022-08-07T17:17:47.367Z,98.60
2022-08-07T17:20:37.714Z,99.40
2022-08-07T17:23:17.112Z,99.70
2022-08-07T17:26:22.743Z,99.90
2022-08-07T17:29:04.781Z,99.10
2022-08-07T17:32:02.614Z,99.50
2022-08-07T17:35:40.644Z,98.90
2022-08-07T17:38:06.801Z,99.20
2022-08-07T17:40:50.677Z,99.90
2022-08-07T17:44:02.626Z,99.90
2022-08-07T17:46:34.285Z,99.90
2022-08-07T17:49:23.373Z,99.90
2022-08-07T17:52:17.689Z,99.90
2022-08-07T17:54:54.391Z,99.90
2022-08-07T17:57:59.229Z,99.90
2022-08-07T18:00:34.481Z,99.90
2022-08-07T18:03:20.982Z,99.90
2022-08-07T18:06:16.494Z,99.90
2022-08-07T18:09:01.786Z,99.90
2022-08-07T18:12:16.257Z,99.90
2022-08-07T18:14:44.948Z,99.90
2022-08-07T18:18:36.608Z,99.90
2022-08-07T18:21:08.957Z,99.90
2022-08-07T18:23:43.689Z,99.90
2022-08-07T18:26:20.346Z,99.90
2022-08-07T18:29:02.269Z,99.90
2022-08-07T18:31:52.460Z,99.90
2022-08-07T18:34:37.017Z,99.90
2022-08-07T18:38:57.914Z,99.90
2022-08-07T18:40:53.563Z,99.90
2022-08-07T18:43:37.169Z,99.90
2022-08-07T18:46:28.465Z,99.90
2022-08-07T18:50:30.174Z,99.90
2022-08-07T18:52:56.906Z,99.90
2022-08-07T18:55:55.803Z,99.90
2022-08-07T18:58:42.383Z,99.90
2022-08-07T19:02:17.429Z,99.90
2022-08-07T19:04:59.479Z,99.90
2022-08-07T19:07:51.875Z,99.90
2022-08-07T19:10:51.943Z,99.90
2022-08-07T19:13:50.242Z,99.90
2022-08-07T19:17:06.041Z,99.90
2022-08-07T19:19:31.842Z,99.90
2022-08-07T19:22:31.466Z,99.90
2022-08-07T19:25:06.518Z,99.90
2022-08-07T19:28:29.694Z,99.90
2022-08-07T19:31:00.064Z,99.90
2022-08-07T19:33:33.649Z,99.90
2022-08-07T19:36:03.729Z,99.90
2022-08-07T19:38:34.367Z,99.90
2022-08-07T19:41:02.649Z,99.90
2022-08-07T19:43:45.579Z,99.90
2022-08-07T19:46:26.331Z,99.90
2022-08-07T19:49:07.299Z,99.90
2022-08-07T19:51:52.812Z,99.90
2022-08-07T19:54:43.877Z,99.90
2022-08-07T19:58:03.120Z,99.90
2022-08-07T20:00:10.352Z,99.90
2022-08-07T20:02:52.248Z,99.90
2022-08-07T20:05:28.046Z,99.90
2022-08-07T20:08:01.453Z,99.90
2022-08-07T20:10:54.752Z,99.90
2022-08-07T20:13:42.029Z,99.90
2022-08-07T20:16:34.800Z,99.90
2022-08-07T20:19:05.917Z,99.90
2022-08-07T20:21:41.669Z,99.90
2022-08-07T20:24:24.055Z,99.90
2022-08-07T20:26:58.763Z,99.90
2022-08-07T20:29:47.791Z,99.90
2022-08-07T20:32:25.593Z,99.90
2022-08-07T20:34:57.466Z,99.90
2022-08-07T20:37:31.011Z,99.90
2022-08-07T20:40:05.109Z,99.90
2022-08-07T20:42:56.106Z,99.90
2022-08-07T20:46:24.305Z,99.90
2022-08-07T20:48:29.085Z,99.90
2022-08-07T20:51:00.111Z,99.90
2022-08-07T20:54:02.095Z,99.90
2022-08-07T20:56:16.606Z,99.90
2022-08-07T20:58:55.915Z,99.90
2022-08-07T21:01:29.802Z,99.90
2022-08-07T21:04:22.593Z,99.90
2022-08-07T21:06:55.131Z,99.90
2022-08-07T21:09:51.520Z,99.90
2022-08-07T21:12:28.716Z,99.90
2022-08-07T21:14:58.491Z,99.90
2022-08-07T21:18:20.328Z,99.90
2022-08-07T21:20:26.496Z,99.90
2022-08-07T21:22:57.319Z,99.90
2022-08-07T21:25:39.078Z,99.90
2022-08-07T21:28:48.910Z,99.90
2022-08-07T21:31:49.206Z,99.90
2022-08-07T21:34:46.152Z,99.90
2022-08-07T21:37:58.809Z,99.90
2022-08-07T21:40:38.934Z,99.90
2022-08-07T21:43:14.149Z,99.90
2022-08-07T21:46:10.554Z,99.90
2022-08-07T21:49:15.036Z,99.90
2022-08-07T21:51:55.816Z,99.90
2022-08-07T21:54:35.119Z,99.90
2022-08-07T21:57:39.354Z,99.90
2022-08-07T22:00:22.609Z,99.90
2022-08-07T22:03:30.892Z,99.90
2022-08-07T22:06:06.390Z,99.90
2022-08-07T22:08:51.819Z,99.90
2022-08-07T22:11:21.716Z,99.90
2022-08-07T22:13:55.331Z,99.90
2022-08-07T22:16:46.914Z,99.90
2022-08-07T22:19:45.090Z,99.90
2022-08-07T22:22:27.561Z,99.90
2022-08-07T22:25:12.352Z,99.90
2022-08-07T22:28:31.556Z,99.90
2022-08-07T22:31:56.281Z,99.90
2022-08-07T22:34:31.729Z,99.90
2022-08-07T22:38:03.921Z,99.90
2022-08-07T22:40:39.842Z,99.90
2022-08-07T22:43:16.644Z,99.90
2022-08-07T22:46:46.898Z,99.90
2022-08-07T22:49:26.351Z,99.90
2022-08-07T22:52:39.419Z,99.90
2022-08-07T22:55:17.358Z,99.90
2022-08-07T22:58:17.749Z,99.90
2022-08-07T23:00:54.634Z,99.90
2022-08-07T23:03:58.170Z,99.90
2022-08-07T23:06:52.666Z,99.90
2022-08-07T23:10:34.176Z,99.90
2022-08-07T23:13:29.330Z,99.90
2022-08-07T23:16:54.707Z,99.90
2022-08-07T23:20:17.480Z,99.90
2022-08-07T23:23:09.756Z,99.90
2022-08-07T23:25:58.715Z,99.90
2022-08-07T23:29:03.545Z,99.90
2022-08-07T23:34:20.773Z,99.90
2022-08-07T23:35:06.113Z,99.90
2022-08-07T23:38:00.746Z,99.90
2022-08-07T23:40:50.927Z,99.90
2022-08-07T23:43:52.744Z,99.90
2022-08-07T23:46:42.992Z,99.90
2022-08-07T23:49:49.820Z,99.90
2022-08-07T23:53:08.486Z,99.90
2022-08-07T23:56:15.910Z,99.90
2022-08-07T23:59:10.842Z,99.90
